Latest Coastal Weather Observations for Cape Moreton

IDQ60701

Issued at 9:31 am EST Monday 27 February 2017 (issued every 10 minutes, with the page automatically refreshed every 10 minutes)

About coastal observations | Map of coastal stations | Coastal observations for QLD | Marine services | Other Formats
Station Details ID: 040043 Name: CAPE MORETON LIGHTHOUSE Lat: -27.03 Lon: 153.47 Height: 99.9 m
Data from the previous 72 hours. | See also: Recent months at Cape Moreton
Date/Time
EST
Temp
°C
Wind Pressure Rain since
9am
mm
Weather Cloud Vis
km
Sea
Height
m
Swell
Dir  Spd
kts
Gust
kts
hPa Trend Height
m
Period
s
Dir
27/09:00am 21.7 ESE 14 16 1017.1 - 12.4 - - - - - - -
27/08:30am 21.8 E 22 29 1017.1 - 12.4 - - - - - - -
27/08:00am 22.8 ESE 22 26 1016.6 - 12.4 - - - - - - -
27/07:30am 22.3 SE 23 27 1016.1 - 12.4 - - - - - - -
27/07:00am 21.9 ESE 22 26 1015.9 - 12.4 - - - - - - -
27/06:30am 22.0 SE 21 27 1015.1 - 12.4 - - - - - - -
27/06:25am 22.1 SE 18 26 1015.2 - 12.4 - - - - - - -
27/06:00am 21.1 S 12 16 1015.6 - 12.4 Recent precip. - - - - - -
27/05:30am 20.0 SSW 12 16 1015.4 - 12.2 - - - - - - -
27/05:00am 20.1 S 10 13 1015.1 - 11.4 - - - - - - -
27/04:30am 19.5 S 9 14 1014.6 - 11.0 - - - - - - -
27/04:00am 19.9 ESE 14 19 1015.0 - 8.6 - - - - - - -
27/03:31am 21.0 SSE 16 30 1014.3 - 2.4 - - - - - - -
27/03:30am 21.2 S 15 30 1014.2 - 1.6 - - - - - - -
27/03:29am 21.5 S 14 30 1014.2 - 1.2 - - - - - - -
27/03:00am 21.3 SW 11 15 1014.9 - 0.0 - - - - - - -
27/02:30am 21.6 SW 10 14 1015.1 - 0.0 - - - - - - -
27/02:00am 21.5 S 12 17 1014.9 - 0.0 - - - - - - -
27/01:42am 21.9 SSE 18 28 1015.1 - 0.0 - - - - - - -
27/01:30am 22.1 SSE 23 30 1014.4 - 0.0 - - - - - - -
27/01:02am 23.1 SSE 18 30 1014.8 - 0.0 - - - - - - -
27/01:00am 22.8 SSE 17 25 1014.9 - 0.0 - - - - - - -
27/12:30am 22.9 SSE 19 24 1015.6 - 0.0 - - - - - - -
27/12:00am 22.7 SSE 19 26 1015.6 - 0.0 - - - - - - -
 
Date/Time
EST
Temp
°C
Wind Pressure Rain since
9am
mm
Weather Cloud Vis
km
Sea
Height
m
Swell
Dir  Spd
kts
Gust
kts
hPa Trend Height
m
Period
s
Dir
26/11:56pm 22.7 SSE 21 26 1015.6 - 0.0 - - - - - - -
26/11:30pm 23.7 SE 25 33 1015.0 - 0.0 - - - - - - -
26/11:00pm 24.6 SE 22 25 1015.9 - 0.0 - - - - - - -
26/10:30pm 24.5 ESE 21 26 1015.8 - 0.0 - - - - - - -
26/10:00pm 24.5 ESE 24 29 1015.9 - 0.0 - - - - - - -
26/09:30pm 24.5 SE 24 28 1015.8 - 0.0 - - - - - - -
26/09:00pm 24.5 SE 23 27 1016.2 - 0.0 - - - - - - -
26/08:30pm 24.7 SE 29 33 1015.6 - 0.0 - - - - - - -
26/08:00pm 24.8 SE 26 30 1015.7 - 0.0 - - - - - - -
26/07:30pm 24.2 SE 24 32 1015.4 - 0.0 - - - - - - -
26/07:00pm 24.9 SE 27 31 1015.0 - 0.0 - - - - - - -
26/06:30pm 25.0 ESE 26 32 1014.0 - 0.0 - - - - - - -
26/06:00pm 25.1 SE 26 31 1014.3 - 0.0 - - - - - - -
26/05:30pm 25.2 SE 26 30 1014.1 - 0.0 - - - - - - -
26/05:00pm 25.4 SE 25 30 1014.0 - 0.0 - - - - - - -
26/04:30pm 25.6 SE 25 30 1014.0 - 0.0 - - - - - - -
26/04:00pm 25.9 SE 27 32 1013.8 - 0.0 - - - - - - -
26/03:30pm 25.8 SE 25 29 1013.7 - 0.0 - - - - - - -
26/03:00pm 26.2 SE 23 28 1013.9 - 0.0 - - - - - - -
26/02:30pm 27.2 SE 22 27 1014.0 - 0.0 - - - - - - -
26/02:00pm 26.7 SE 23 27 1014.2 - 0.0 - - - - - - -
26/01:30pm 26.9 SE 23 27 1014.4 - 0.0 - - - - - - -
26/01:00pm 25.8 SE 22 27 1014.9 - 0.0 - - - - - - -
26/12:30pm 25.5 SE 20 25 1015.1 - 0.0 - - - - - - -
26/12:00pm 26.2 SE 20 24 1015.2 - 0.0 - - - - - - -
26/11:30am 28.4 SE 18 22 1015.3 - 0.0 - - - - - - -
26/11:00am 27.7 SE 17 20 1015.5 - 0.0 - - - - - - -
26/10:30am 28.7 SE 17 19 1015.5 - 0.0 - - - - - - -
26/10:00am 28.0 ESE 16 18 1015.5 - 0.0 - - - - - - -
26/09:30am 27.2 ESE 17 19 1015.3 - 0.0 - - - - - - -
26/09:00am 27.6 ESE 17 20 1015.3 - 0.0 - - - - - - -
26/08:30am 26.5 ESE 17 19 1015.1 - 0.0 - - - - - - -
26/08:00am 27.1 ESE 16 19 1015.2 - 0.0 - - - - - - -
26/07:30am 26.9 SE 16 18 1014.6 - 0.0 - - - - - - -
26/07:00am 26.0 ESE 16 18 1014.6 - 0.0 - - - - - - -
26/06:30am 25.0 ESE 15 18 1014.1 - 0.0 - - - - - - -
26/06:00am 24.5 ESE 17 20 1013.7 - 0.0 - - - - - - -
26/05:30am 24.3 ESE 19 22 1013.2 - 0.0 - - - - - - -
26/05:00am 24.2 ESE 18 22 1013.1 - 0.0 - - - - - - -
26/04:30am 24.2 ESE 18 22 1012.9 - 0.0 - - - - - - -
26/04:00am 24.2 ESE 18 22 1012.8 - 0.0 - - - - - - -
26/03:30am 24.2 SE 20 23 1012.6 - 0.0 - - - - - - -
26/03:00am 24.3 SE 21 25 1012.6 - 0.0 - - - - - - -
26/02:30am 24.3 SE 22 26 1012.5 - 0.0 - - - - - - -
26/02:00am 24.5 SE 22 25 1012.6 - 0.0 - - - - - - -
26/01:30am 24.5 SE 21 24 1012.9 - 0.0 - - - - - - -
26/01:00am 24.6 SE 21 25 1013.4 - 0.0 - - - - - - -
26/12:30am 24.5 SE 23 28 1013.6 - 0.0 - - - - - - -
26/12:00am 24.4 SE 21 27 1014.0 - 0.0 - - - - - - -
 
Date/Time
EST
Temp
°C
Wind Pressure Rain since
9am
mm
Weather Cloud Vis
km
Sea
Height
m
Swell
Dir  Spd
kts
Gust
kts
hPa Trend Height
m
Period
s
Dir
25/11:30pm 24.2 SE 21 24 1014.7 - 0.0 - - - - - - -
25/11:00pm 23.9 SE 23 27 1015.0 - 0.0 - - - - - - -
25/10:30pm 24.2 SE 23 27 1014.9 - 0.0 - - - - - - -
25/10:00pm 24.3 SE 21 26 1015.0 - 0.0 - - - - - - -
25/09:30pm 24.6 SE 25 29 1014.9 - 0.0 - - - - - - -
25/09:00pm 24.6 SE 24 28 1014.8 - 0.0 - - - - - - -
25/08:30pm 24.8 SE 26 31 1014.6 - 0.0 - - - - - - -
25/08:00pm 25.0 SE 27 32 1014.2 - 0.0 - - - - - - -
25/07:30pm 25.0 SE 29 35 1013.9 - 0.0 - - - - - - -
25/07:00pm 24.8 SE 25 30 1013.6 - 0.0 - - - - - - -
25/06:30pm 24.8 SE 27 31 1013.2 - 0.0 - - - - - - -
25/06:00pm 25.0 ESE 25 30 1013.1 - 0.0 - - - - - - -
25/05:30pm 25.3 SE 25 29 1013.1 - 0.0 - - - - - - -
25/05:00pm 25.5 SE 23 27 1013.0 - 0.0 - - - - - - -
25/04:30pm 25.5 SE 23 29 1013.0 - 0.0 - - - - - - -
25/04:00pm 25.9 SE 23 29 1012.9 - 0.0 - - - - - - -
25/03:30pm 26.1 SE 23 26 1012.9 - 0.0 - - - - - - -
25/03:00pm 26.6 SE 21 25 1013.2 - 0.0 - - - - - - -
25/02:30pm 26.5 SE 20 24 1013.5 - 0.0 - - - - - - -
25/02:00pm 26.9 SE 19 23 1013.9 - 0.0 - - - - - - -
25/01:30pm 27.2 SE 21 24 1014.3 - 0.0 - - - - - - -
25/01:00pm 27.2 SE 20 24 1014.4 - 0.0 - - - - - - -
25/12:30pm 26.4 SSE 21 27 1014.8 - 0.0 - - - - - - -
25/12:00pm 26.6 SSE 22 26 1015.1 - 0.0 - - - - - - -
25/11:30am 26.9 SSE 20 25 1015.3 - 0.0 - - - - - - -
25/11:00am 26.6 SSE 19 24 1015.8 - 0.0 - - - - - - -
25/10:31am 26.5 SSE 17 27 1016.1 - 0.0 - - - - - - -
25/10:30am 26.5 SSE 18 27 1016.0 - 0.0 - - - - - - -
25/10:00am 26.2 SSE 17 23 1016.1 - 0.0 - - - - - - -
25/09:30am 26.3 SSE 17 22 1016.2 - 0.0 - - - - - - -
25/09:00am 26.0 SSE 15 21 1016.2 - 0.0 - - - - - - -
25/08:30am 25.0 S 16 22 1016.2 - 0.0 - - - - - - -
25/08:00am 24.3 S 15 21 1016.3 - 0.0 - - - - - - -
25/07:30am 23.9 S 14 20 1016.1 - 0.0 - - - - - - -
25/07:00am 24.3 SSE 15 20 1015.7 - 0.0 - - - - - - -
25/06:30am 23.4 S 14 19 1015.6 - 0.0 - - - - - - -
25/06:00am 23.2 S 15 19 1015.5 - 0.0 - - - - - - -
25/05:30am 23.3 SSE 11 16 1015.5 - 0.0 - - - - - - -
25/05:00am 23.7 SE 17 22 1015.0 - 0.0 - - - - - - -
25/04:30am 23.7 SE 15 21 1014.7 - 0.0 - - - - - - -
25/04:00am 23.6 SE 14 17 1014.8 - 0.0 - - - - - - -
25/03:30am 23.7 SE 17 20 1014.3 - 0.0 - - - - - - -
25/03:00am 23.8 SE 15 18 1014.3 - 0.0 - - - - - - -
25/02:30am 24.0 ESE 15 18 1014.4 - 0.0 - - - - - - -
25/02:00am 23.9 ESE 16 19 1014.7 - 0.0 - - - - - - -
25/01:30am 23.8 ESE 15 18 1014.9 - 0.0 - - - - - - -
25/01:00am 23.8 ESE 15 18 1015.0 - 0.0 - - - - - - -
25/12:30am 23.9 ESE 14 16 1015.3 - 0.0 - - - - - - -
25/12:00am 23.7 ESE 11 13 1015.4 - 0.0 - - - - - - -
 
Date/Time
EST
Temp
°C
Wind Pressure Rain since
9am
mm
Weather Cloud Vis
km
Sea
Height
m
Swell
Dir  Spd
kts
Gust
kts
hPa Trend Height
m
Period
s
Dir
24/11:30pm 23.6 ESE 13 16 1015.7 - 0.0 - - - - - - -
24/11:00pm 23.8 ESE 15 18 1016.0 - 0.0 - - - - - - -
24/10:30pm 24.0 ESE 16 20 1016.1 - 0.0 - - - - - - -
24/10:00pm 24.1 ESE 16 20 1016.4 - 0.0 - - - - - - -
24/09:30pm 24.1 ESE 17 20 1016.6 - 0.0 - - - - - - -
24/09:00pm 24.2 ESE 17 23 1016.7 - 0.0 - - - - - - -
24/08:30pm 24.3 ESE 18 21 1016.7 - 0.0 - - - - - - -
24/08:00pm 24.4 ESE 17 21 1016.5 - 0.0 - - - - - - -
24/07:30pm 24.3 ESE 18 21 1016.3 - 0.0 - - - - - - -
24/07:00pm 24.4 ESE 18 22 1016.0 - 0.0 - - - - - - -
24/06:30pm 24.5 ESE 19 21 1016.0 - 0.0 - - - - - - -
24/06:00pm 24.9 ESE 19 21 1015.6 - 0.0 - - - - - - -
24/05:30pm 25.1 ESE 20 23 1015.5 - 0.0 - - - - - - -
24/05:00pm 25.5 ESE 19 22 1015.5 - 0.0 - - - - - - -
24/04:30pm 25.8 ESE 19 22 1015.5 - 0.0 - - - - - - -
24/04:00pm 25.7 ESE 19 22 1015.6 - 0.0 - - - - - - -
24/03:30pm 26.1 SE 19 23 1015.6 - 0.0 - - - - - - -
24/03:00pm 26.2 SE 20 24 1015.7 - 0.0 - - - - - - -
24/02:30pm 26.6 SE 19 24 1016.0 - 0.0 - - - - - - -
24/02:00pm 26.9 SE 20 24 1016.0 - 0.0 - - - - - - -
24/01:30pm 27.1 SE 21 25 1016.3 - 0.0 - - - - - - -
24/01:00pm 27.3 SSE 21 25 1016.4 - 0.0 - - - - - - -
24/12:30pm 27.8 SE 18 24 1016.7 - 0.0 - - - - - - -
24/12:00pm 28.3 SE 14 18 1017.2 - 0.0 - - - - - - -
24/11:30am 28.3 SE 15 18 1017.4 - 0.0 - - - - - - -
24/11:00am 28.5 SE 14 16 1017.7 - 0.0 - - - - - - -
24/10:30am 28.3 SE 13 15 1018.0 - 0.0 - - - - - - -
24/10:00am 28.2 SE 14 17 1018.2 - 0.0 - - - - - - -

Other Formats:

Comma delimited format used in spreadsheet applications
http://www.bom.gov.au/fwo/IDQ60701/IDQ60701.94594.axf

JavaScript Object Notation format (JSON) in row-major order
http://www.bom.gov.au/fwo/IDQ60701/IDQ60701.94594.json